Airfield :
LOGIN :

Register | Disclaimer

   EN    FR    IT 

 










Legend :    VFR   Marginal VFR   IFR   Intensive IFR   Very Intensive IFR
Visi :
Ceiling :
>= 8 km
>= 3000ft
5 to 8 km
1000 to 3000 ft
1500m to 5 km
500 to 1000 ft
800 to 1500m
200 to 500 ft
< 800m
< 200 ft
Symbols :   Thunderstorms  Fog  Heavy snow  Heavy precipitations  Wind > 20 kt
SIGMETs :     Misc.  Thunderstorms  Icing  Turbulence  Mountain Waves  Volcanic Ashes






- Airport Elevation : 995 ft
- IATA code : KTW


EPKT - Katowice

CURRENT METAR :
  • 310330Z 31011KT 4500 RA BR FEW002 BKN004 08/08 Q1012

EXPIRED METARs :
  • 310300Z 31011KT 280V340 6000 RA FEW004 OVC006 08/07 Q1012
  • 310230Z 31010G20KT 6000 RA SCT005 OVC007 08/07 Q1012
  • 310200Z 30010KT 9000 -RA FEW006 OVC014 08/07 Q1012
  • 310130Z 31009KT 9000 -RA OVC018 08/07 Q1013
  • 310100Z 30009KT 9999 -RA OVC024 08/07 Q1013

TAF TAF EPKT
Valid from the 31 at 00:00 until the 01 at 00:00 UTC


302330Z 3100/3124 34015G25KT 9999 BKN030
TEMPO 3100/3110 4000 RA BR BKN004 BKN010
PROB30
TEMPO 3102/3106 2000 +RA BR
BECMG 3113/3115 02010KT



MET'MAP, your aeronautical weather chart ! - Copyright ORBIFLY December 2007 - Disclaimer

ORBIFLY MET'MAP TEAM :

Programming & Development : Alexandra Zaïnal
Concept & original design : Baudouin d'Aumeries
Assistance for programming : Marc-Olivier Méhu
Technical & hardware support : Manuel Goepfert

Contact : metmap@orbifly.com




SOURCES & CREDITS :

   NOAA